Time;durP1;ratioP1;P1;durP2;ratioP2;P2;SDS_P1;SDS_P2;PMS_P1;PMS_P2;Temp;Humidity;BMP_temperature;BMP_pressure;BME280_temperature;BME280_humidity;BME280_pressure;Samples;Min_cycle;Max_cycle;Signal;HPM_P1;HPM_P2
2024/01/29 00:00:53;;;;;;;13.05;8.07;;;;;;;3.61;84.94;102399.28;5066799;28;20123;-68
2024/01/29 00:03:20;;;;;;;98.43;57.33;;;;;;;3.58;85.02;102398.34;5061792;28;20124;-68
2024/01/29 00:05:47;;;;;;;27.23;16.95;;;;;;;3.57;84.97;102400.94;5052581;28;20040;-67
2024/01/29 00:08:15;;;;;;;13.88;7.88;;;;;;;3.55;85.07;102394.78;5069587;28;20501;-67
2024/01/29 00:10:42;;;;;;;7.88;5.10;;;;;;;3.51;85.07;102390.38;5051563;28;20110;-68
2024/01/29 00:13:09;;;;;;;8.25;4.93;;;;;;;3.47;85.23;102386.78;5066058;28;20528;-68
2024/01/29 00:15:36;;;;;;;8.55;4.72;;;;;;;3.45;85.42;102380.66;5064768;28;20987;-68
2024/01/29 00:18:03;;;;;;;8.85;5.10;;;;;;;3.41;85.47;102382.28;5071696;28;20055;-68
2024/01/29 00:20:31;;;;;;;7.75;4.72;;;;;;;3.40;85.65;102377.06;5067640;28;20142;-68
2024/01/29 00:22:58;;;;;;;10.27;5.45;;;;;;;3.39;85.83;102378.81;5067783;28;20737;-69
2024/01/29 00:25:25;;;;;;;7.40;4.85;;;;;;;3.38;85.90;102387.47;5066786;28;20037;-69
2024/01/29 00:27:52;;;;;;;9.75;5.28;;;;;;;3.39;86.21;102378.81;5058238;28;20124;-67
2024/01/29 00:30:20;;;;;;;8.30;4.78;;;;;;;3.39;86.21;102376.19;5064666;28;20047;-68
2024/01/29 00:32:47;;;;;;;8.90;5.07;;;;;;;3.41;86.41;102374.47;5080621;28;20063;-68
2024/01/29 00:35:16;;;;;;;9.07;4.80;;;;;;;3.42;86.40;102377.97;5066293;28;20229;-68
2024/01/29 00:37:43;;;;;;;8.50;4.75;;;;;;;3.41;86.52;102379.69;5067286;28;20136;-68
2024/01/29 00:40:11;;;;;;;7.63;5.05;;;;;;;3.40;86.45;102377.97;5068185;28;20504;-68
2024/01/29 00:42:38;;;;;;;8.60;4.97;;;;;;;3.40;86.66;102383.16;5062655;28;20693;-67
2024/01/29 00:45:06;;;;;;;11.45;5.28;;;;;;;3.40;86.73;102380.56;5066095;28;20119;-68
2024/01/29 00:47:33;;;;;;;7.53;4.50;;;;;;;3.40;86.76;102383.16;5069391;28;20132;-67
2024/01/29 00:50:00;;;;;;;7.47;5.20;;;;;;;3.42;86.81;102377.97;5064488;28;20057;-67
2024/01/29 00:52:28;;;;;;;9.15;5.65;;;;;;;3.42;86.93;102376.25;5067239;28;20048;-67
2024/01/29 00:54:55;;;;;;;10.98;5.00;;;;;;;3.42;86.88;102376.25;5065670;28;20063;-67
2024/01/29 00:57:23;;;;;;;8.18;4.82;;;;;;;3.42;86.85;102373.63;5065921;28;20048;-67
2024/01/29 00:59:51;;;;;;;8.43;4.70;;;;;;;3.43;87.00;102379.75;5065696;28;20153;-67
2024/01/29 01:02:18;;;;;;;7.47;4.70;;;;;;;3.45;87.00;102390.19;5068228;28;20071;-67
2024/01/29 01:04:45;;;;;;;9.00;5.10;;;;;;;3.45;87.14;102393.72;5064645;28;20118;-68
2024/01/29 01:07:12;;;;;;;7.90;4.88;;;;;;;3.46;87.13;102395.44;5067289;28;20123;-68
2024/01/29 01:09:39;;;;;;;7.68;4.57;;;;;;;3.45;87.14;102393.72;5066212;28;20052;-67
2024/01/29 01:12:07;;;;;;;8.27;4.88;;;;;;;3.46;87.08;102392.84;5062576;28;20045;-68
2024/01/29 01:14:34;;;;;;;8.90;5.30;;;;;;;3.47;87.17;102388.53;5065034;28;20071;-67
2024/01/29 01:17:01;;;;;;;7.65;5.45;;;;;;;3.44;87.20;102378.91;5067630;28;20136;-67
2024/01/29 01:19:28;;;;;;;10.70;4.90;;;;;;;3.45;87.20;102387.59;5065059;28;20036;-67
2024/01/29 01:21:55;;;;;;;11.75;4.75;;;;;;;3.42;87.46;102384.06;5066866;28;20053;-68
2024/01/29 01:24:23;;;;;;;9.68;5.18;;;;;;;3.44;87.71;102378.00;5066871;28;20044;-67
2024/01/29 01:26:50;;;;;;;7.50;4.70;;;;;;;3.44;87.67;102378.91;5067581;28;20636;-67
2024/01/29 01:29:18;;;;;;;8.35;4.78;;;;;;;3.44;87.65;102385.81;5076604;28;20033;-67
2024/01/29 01:31:45;;;;;;;8.15;4.43;;;;;;;3.42;87.81;102402.31;5068339;28;20048;-68
2024/01/29 01:34:12;;;;;;;9.07;4.80;;;;;;;3.41;87.83;102408.38;5069771;28;20102;-69
2024/01/29 01:36:40;;;;;;;8.38;4.90;;;;;;;3.42;87.97;102404.06;5067762;28;20062;-69
2024/01/29 01:39:08;;;;;;;9.75;5.05;;;;;;;3.42;87.74;102406.66;5076343;28;20040;-69
2024/01/29 01:41:35;;;;;;;8.60;5.10;;;;;;;3.42;88.01;102404.06;5063618;28;20048;-68
2024/01/29 01:44:02;;;;;;;8.18;4.68;;;;;;;3.43;88.26;102411.03;5068036;28;20145;-68
2024/01/29 01:46:30;;;;;;;6.78;4.57;;;;;;;3.42;88.18;102415.34;5070957;28;20110;-69
2024/01/29 01:48:57;;;;;;;8.82;5.03;;;;;;;3.41;88.30;102417.94;5071179;28;20068;-69
2024/01/29 01:51:25;;;;;;;7.47;5.20;;;;;;;3.38;88.16;102416.13;5069875;28;20045;-69
2024/01/29 01:53:59;;;;;;;8.27;5.40;;;;;;;3.35;88.22;102416.06;5070446;28;20674;-69
2024/01/29 01:56:27;;;;;;;9.38;5.10;;;;;;;3.30;88.02;102416.78;5084796;28;20573;-68
2024/01/29 01:58:59;;;;;;;8.27;4.78;;;;;;;3.23;88.03;102416.63;5068784;28;20047;-68
2024/01/29 02:01:28;;;;;;;8.48;4.95;;;;;;;3.19;88.29;102416.53;5070617;28;20059;-68
2024/01/29 02:03:55;;;;;;;8.38;4.82;;;;;;;3.14;88.29;102411.19;5068559;28;20471;-68
2024/01/29 02:06:22;;;;;;;10.07;5.10;;;;;;;3.09;88.45;102411.06;5071430;28;20036;-68
2024/01/29 02:08:50;;;;;;;7.72;4.43;;;;;;;3.05;88.46;102411.81;5071001;28;20132;-69
2024/01/29 02:11:17;;;;;;;7.95;5.00;;;;;;;3.04;88.89;102404.84;5069505;28;20127;-68
2024/01/29 02:13:44;;;;;;;10.70;4.97;;;;;;;3.02;88.94;102403.06;5069192;28;20049;-68
2024/01/29 02:16:12;;;;;;;10.95;5.35;;;;;;;3.00;89.22;102409.94;5072503;28;20060;-68
2024/01/29 02:18:39;;;;;;;6.88;4.68;;;;;;;3.00;89.18;102402.13;5069118;28;20153;-68
2024/01/29 02:21:07;;;;;;;11.35;5.82;;;;;;;2.98;89.39;102404.69;5070384;28;20049;-68
2024/01/29 02:23:34;;;;;;;11.88;5.00;;;;;;;3.00;89.58;102405.59;5069630;28;20044;-68
2024/01/29 02:26:01;;;;;;;7.80;5.13;;;;;;;3.00;89.58;102408.19;5076762;28;20053;-66
2024/01/29 02:28:29;;;;;;;9.45;5.53;;;;;;;3.00;89.77;102399.50;5069915;28;20028;-68
2024/01/29 02:30:56;;;;;;;8.70;5.10;;;;;;;3.03;89.91;102402.22;5051632;28;20040;-68
2024/01/29 02:33:23;;;;;;;11.35;5.75;;;;;;;3.05;89.88;102403.13;5063698;28;20048;-68
2024/01/29 02:35:50;;;;;;;10.48;5.38;;;;;;;3.06;89.87;102407.47;5061657;28;20046;-68
2024/01/29 02:38:18;;;;;;;9.07;5.20;;;;;;;3.06;90.02;102405.78;5081583;28;20079;-68
2024/01/29 02:40:45;;;;;;;8.00;4.90;;;;;;;3.06;90.05;102416.19;5069390;28;20106;-68
2024/01/29 02:43:12;;;;;;;9.30;5.30;;;;;;;3.07;90.15;102406.63;5068451;28;20136;-68
2024/01/29 02:45:39;;;;;;;8.10;5.13;;;;;;;3.08;90.13;102409.31;5067268;28;20087;-68
2024/01/29 02:48:07;;;;;;;6.97;5.05;;;;;;;3.10;90.07;102410.19;5068707;28;20036;-68
2024/01/29 02:50:34;;;;;;;8.02;5.05;;;;;;;3.11;90.13;102413.72;5069208;28;20050;-69
2024/01/29 02:53:02;;;;;;;8.20;5.28;;;;;;;3.11;90.24;102403.28;5063288;28;20836;-69
2024/01/29 02:55:29;;;;;;;8.38;5.22;;;;;;;3.12;90.22;102405.06;5069708;28;20652;-68
2024/01/29 02:57:56;;;;;;;6.93;4.88;;;;;;;3.14;90.25;102405.97;5065660;28;20071;-69
2024/01/29 03:00:23;;;;;;;8.77;4.70;;;;;;;3.16;90.22;102400.78;5069209;28;20125;-69
2024/01/29 03:02:50;;;;;;;8.05;5.78;;;;;;;3.19;90.50;102400.88;5083449;28;20041;-69
2024/01/29 03:05:17;;;;;;;9.38;5.47;;;;;;;3.20;90.37;102398.31;5079039;28;20072;-69
2024/01/29 03:07:45;;;;;;;6.15;4.45;;;;;;;3.24;90.38;102391.44;5067239;28;20153;-69
2024/01/29 03:10:12;;;;;;;8.77;4.90;;;;;;;3.29;90.43;102388.94;5068590;28;20076;-69
2024/01/29 03:12:39;;;;;;;8.38;4.60;;;;;;;3.29;90.44;102386.34;5066714;28;20102;-69
2024/01/29 03:15:06;;;;;;;8.02;4.78;;;;;;;3.30;90.31;102390.72;5074339;28;20024;-68
2024/01/29 03:17:34;;;;;;;10.13;4.97;;;;;;;3.32;90.25;102389.91;5068454;28;20127;-67
2024/01/29 03:20:02;;;;;;;9.57;5.10;;;;;;;3.33;90.13;102393.41;5066979;28;20058;-67
2024/01/29 03:22:30;;;;;;;8.20;4.82;;;;;;;3.33;90.20;102393.41;5068265;28;20611;-67
2024/01/29 03:24:57;;;;;;;7.40;5.53;;;;;;;3.35;90.13;102399.53;5062024;28;20040;-67
2024/01/29 03:27:24;;;;;;;10.40;5.35;;;;;;;3.34;90.16;102403.00;5068394;28;20055;-67
2024/01/29 03:29:53;;;;;;;9.10;5.32;;;;;;;3.34;90.10;102384.75;5066329;28;20044;-67
2024/01/29 03:32:20;;;;;;;8.25;5.05;;;;;;;3.30;90.00;102398.53;5067512;28;20059;-67
2024/01/29 03:34:47;;;;;;;9.73;5.57;;;;;;;3.28;90.05;102401.13;5067303;28;20147;-67
2024/01/29 03:37:14;;;;;;;9.52;5.18;;;;;;;3.27;90.25;102394.13;5067924;28;20052;-67
2024/01/29 03:39:41;;;;;;;12.57;5.13;;;;;;;3.22;90.25;102394.03;5066699;28;20425;-67
2024/01/29 03:42:09;;;;;;;9.95;5.32;;;;;;;3.19;90.04;102401.75;5067936;28;20040;-67
2024/01/29 03:44:36;;;;;;;10.25;5.22;;;;;;;3.15;90.00;102396.44;5068159;28;20054;-67
2024/01/29 03:47:03;;;;;;;8.35;4.80;;;;;;;3.11;90.06;102403.28;5068229;28;20040;-67
2024/01/29 03:49:30;;;;;;;11.02;5.28;;;;;;;3.06;89.84;102408.38;5067587;28;20113;-67
2024/01/29 03:51:57;;;;;;;8.40;4.95;;;;;;;3.05;90.25;102411.81;5068228;28;20064;-67
2024/01/29 03:54:24;;;;;;;7.85;5.18;;;;;;;3.02;90.36;102411.72;5067022;28;20056;-67
2024/01/29 03:56:52;;;;;;;9.70;5.28;;;;;;;3.00;90.29;102415.16;5068559;28;20041;-67
2024/01/29 03:59:19;;;;;;;10.05;5.30;;;;;;;2.95;90.42;102426.31;5065929;28;20044;-68
2024/01/29 04:01:46;;;;;;;10.00;5.32;;;;;;;2.93;90.35;102417.59;5067882;28;20052;-68
2024/01/29 04:04:13;;;;;;;9.50;5.60;;;;;;;2.89;90.41;102413.16;5066735;28;20040;-68
2024/01/29 04:06:40;;;;;;;9.48;5.40;;;;;;;2.87;90.56;102413.94;5068169;28;20044;-68
2024/01/29 04:09:09;;;;;;;8.77;5.28;;;;;;;2.85;90.84;102410.41;5066635;28;20091;-68
2024/01/29 04:11:36;;;;;;;8.75;5.05;;;;;;;2.81;90.88;102406.84;5068348;28;20049;-68
2024/01/29 04:14:04;;;;;;;10.52;5.57;;;;;;;2.79;91.15;102400.72;5077904;28;20525;-68
2024/01/29 04:16:31;;;;;;;7.03;5.30;;;;;;;2.78;91.37;102405.06;5081070;28;20523;-68
2024/01/29 04:18:58;;;;;;;8.95;5.75;;;;;;;2.77;91.36;102413.69;5069759;28;20496;-68
2024/01/29 04:21:25;;;;;;;9.75;5.78;;;;;;;2.77;91.47;102408.50;5067324;28;20044;-68
2024/01/29 04:23:53;;;;;;;12.05;5.20;;;;;;;2.76;91.55;102417.16;5063169;28;20044;-68
2024/01/29 04:26:20;;;;;;;8.60;5.22;;;;;;;2.76;91.58;102414.53;5065208;28;20137;-68
2024/01/29 04:28:47;;;;;;;7.88;5.13;;;;;;;2.74;91.71;102416.22;5066753;28;20068;-68
2024/01/29 04:31:15;;;;;;;8.75;5.70;;;;;;;2.73;91.39;102411.84;5066099;28;20053;-68
2024/01/29 04:33:43;;;;;;;7.95;5.28;;;;;;;2.70;91.72;102403.94;5066044;28;20048;-68
2024/01/29 04:36:16;;;;;;;9.80;6.07;;;;;;;2.68;91.70;102417.75;5066950;28;20036;-68
2024/01/29 04:38:44;;;;;;;13.43;7.20;;;;;;;2.65;91.71;102418.56;5067514;28;20453;-68
2024/01/29 04:41:21;;;;;;;16.08;9.15;;;;;;;2.63;91.68;102415.94;5064794;28;20063;-68
2024/01/29 04:43:49;;;;;;;14.55;8.52;;;;;;;2.60;91.71;102410.63;5064114;28;20036;-67
2024/01/29 04:46:16;;;;;;;14.90;8.57;;;;;;;2.58;91.77;102412.31;5066829;28;20086;-68
2024/01/29 04:48:43;;;;;;;18.83;9.48;;;;;;;2.55;91.74;102414.81;5064787;28;20044;-68
2024/01/29 04:51:11;;;;;;;20.20;10.48;;;;;;;2.55;91.95;102408.72;5064870;28;20052;-68
2024/01/29 04:53:39;;;;;;;31.63;13.88;;;;;;;2.54;91.94;102413.06;5066507;28;20128;-68
2024/01/29 04:56:07;;;;;;;26.38;13.80;;;;;;;2.55;92.14;102416.53;5064143;28;20032;-68
2024/01/29 04:58:34;;;;;;;18.02;10.75;;;;;;;2.55;92.16;102421.75;5067028;28;20072;-68
2024/01/29 05:01:01;;;;;;;15.85;10.25;;;;;;;2.55;92.40;102425.22;5065414;28;20157;-68
2024/01/29 05:03:29;;;;;;;16.20;10.40;;;;;;;2.58;92.38;102432.25;5072886;28;20048;-68
2024/01/29 05:05:56;;;;;;;14.20;9.93;;;;;;;2.59;92.51;102427.09;5069271;28;20068;-68
2024/01/29 05:08:24;;;;;;;12.80;8.43;;;;;;;2.60;92.44;102420.16;5055649;28;20129;-68
2024/01/29 05:10:51;;;;;;;11.38;6.75;;;;;;;2.60;92.61;102417.53;5070598;28;20153;-68
2024/01/29 05:13:18;;;;;;;10.77;6.43;;;;;;;2.59;92.52;102426.22;5073427;28;20527;-68
2024/01/29 05:15:45;;;;;;;11.98;7.07;;;;;;;2.57;92.51;102423.56;5071466;28;20094;-68
2024/01/29 05:18:12;;;;;;;13.32;7.97;;;;;;;2.60;92.64;102422.75;5071361;28;20037;-68
2024/01/29 05:20:40;;;;;;;12.40;7.40;;;;;;;2.63;92.76;102435.88;5068596;28;20095;-68
2024/01/29 05:23:07;;;;;;;12.93;8.20;;;;;;;2.63;92.92;102426.34;5070956;28;20051;-68
2024/01/29 05:25:34;;;;;;;9.80;6.82;;;;;;;2.67;92.83;102431.63;5085692;28;20044;-68
2024/01/29 05:28:01;;;;;;;10.75;6.78;;;;;;;2.69;92.92;102422.13;5070781;28;20563;-68
2024/01/29 05:30:28;;;;;;;13.40;8.50;;;;;;;2.70;92.80;102424.78;5069060;28;20043;-68
2024/01/29 05:32:56;;;;;;;13.35;8.38;;;;;;;2.69;92.74;102422.13;5070607;28;20099;-68
2024/01/29 05:35:23;;;;;;;17.75;9.50;;;;;;;2.67;92.39;102416.91;5059319;28;20091;-69
2024/01/29 05:37:50;;;;;;;12.43;7.85;;;;;;;2.65;92.77;102418.56;5070361;28;20724;-68
2024/01/29 05:40:17;;;;;;;11.02;7.00;;;;;;;2.62;92.75;102424.59;5069801;28;20052;-68
2024/01/29 05:42:52;;;;;;;11.75;6.63;;;;;;;2.61;92.92;102428.03;5068354;28;20040;-68
2024/01/29 05:45:20;;;;;;;10.82;7.45;;;;;;;2.62;93.15;102435.00;5073914;28;20616;-70
2024/01/29 05:47:47;;;;;;;11.77;6.85;;;;;;;2.64;93.25;102437.63;5070366;28;20041;-70
2024/01/29 05:50:15;;;;;;;15.13;7.82;;;;;;;2.64;93.53;102432.44;5072337;28;20101;-69
2024/01/29 05:52:43;;;;;;;11.90;7.20;;;;;;;2.66;93.60;102430.75;5070699;28;20051;-69
2024/01/29 05:55:10;;;;;;;12.32;7.75;;;;;;;2.66;93.75;102435.06;5086337;28;20051;-70
2024/01/29 05:57:37;;;;;;;11.38;7.10;;;;;;;2.66;93.69;102433.34;5064501;28;20109;-71
2024/01/29 06:00:09;;;;;;;13.93;7.10;;;;;;;2.69;93.95;102432.56;5068240;28;20583;-71
2024/01/29 06:02:43;;;;;;;10.13;6.40;;;;;;;2.69;93.80;102433.44;5069215;28;20048;-71
2024/01/29 06:05:13;;;;;;;15.52;6.25;;;;;;;2.71;94.04;102436.09;5069856;28;20048;-69
2024/01/29 06:07:41;;;;;;;11.77;7.25;;;;;;;2.76;94.54;102431.88;5088227;28;20044;-70
2024/01/29 06:10:11;;;;;;;13.65;6.28;;;;;;;2.93;97.06;102433.25;5049223;28;20683;-69
2024/01/29 06:12:38;;;;;;;20.73;8.05;;;;;;;3.22;98.53;102433.13;5067341;28;20814;-70
2024/01/29 06:15:06;;;;;;;12.55;6.65;;;;;;;3.46;97.47;102434.56;5080444;28;20052;-70
2024/01/29 06:17:33;;;;;;;13.57;6.90;;;;;;;3.57;95.99;102438.31;5061520;28;20560;-70
2024/01/29 06:20:01;;;;;;;21.52;7.05;;;;;;;3.60;94.54;102439.25;5065764;28;20051;-70
2024/01/29 06:22:44;;;;;;;14.10;6.63;;;;;;;3.60;94.09;102440.13;5069949;28;20516;-70
2024/01/29 06:25:11;;;;;;;12.93;6.00;;;;;;;3.58;93.79;102445.28;5068086;28;20091;-68
2024/01/29 06:27:41;;;;;;;11.98;6.72;;;;;;;3.51;93.10;102440.78;5035926;28;20041;-68
2024/01/29 06:30:12;;;;;;;12.60;6.32;;;;;;;3.42;92.67;102437.94;5052720;28;20040;-68
2024/01/29 06:32:40;;;;;;;9.85;5.93;;;;;;;3.34;92.74;102437.75;5041620;28;20471;-68
2024/01/29 06:35:09;;;;;;;11.38;6.10;;;;;;;3.28;92.77;102440.22;5068754;28;20052;-67
2024/01/29 06:37:37;;;;;;;11.43;6.07;;;;;;;3.22;92.80;102447.84;5074714;28;20063;-67
2024/01/29 06:40:05;;;;;;;10.18;5.95;;;;;;;3.18;93.02;102444.28;5068486;28;20048;-68
2024/01/29 06:42:32;;;;;;;13.10;6.30;;;;;;;3.16;93.09;102447.72;5077838;28;20039;-68
2024/01/29 06:45:00;;;;;;;11.50;6.60;;;;;;;3.13;93.10;102445.00;5054808;28;20048;-68
2024/01/29 06:47:27;;;;;;;17.10;8.52;;;;;;;3.12;93.09;102438.94;5076235;28;20037;-68
2024/01/29 06:49:58;;;;;;;15.60;8.05;;;;;;;3.13;93.28;102443.31;5068470;28;20047;-67
2024/01/29 06:52:27;;;;;;;8.68;5.95;;;;;;;3.16;93.41;102447.72;5075293;28;20105;-68
2024/01/29 06:54:55;;;;;;;10.07;5.55;;;;;;;3.16;93.38;102438.16;5073648;28;20036;-68
2024/01/29 06:57:22;;;;;;;10.48;6.88;;;;;;;3.18;93.40;102438.22;5068475;28;20123;-68
2024/01/29 06:59:49;;;;;;;13.43;6.30;;;;;;;3.21;93.34;102440.88;5071783;28;20528;-68
2024/01/29 07:02:17;;;;;;;7.68;5.10;;;;;;;3.21;93.26;102449.59;5080305;28;20040;-68
2024/01/29 07:04:45;;;;;;;11.45;6.30;;;;;;;3.23;93.31;102457.44;5072901;28;20124;-68
2024/01/29 07:07:12;;;;;;;11.38;6.07;;;;;;;3.25;93.23;102461.88;5070120;28;20036;-68
2024/01/29 07:09:40;;;;;;;8.10;5.13;;;;;;;3.27;93.08;102467.13;5067291;28;20079;-68
2024/01/29 07:12:07;;;;;;;10.20;5.65;;;;;;;3.25;93.22;102466.19;5070220;28;20439;-68
2024/01/29 07:14:34;;;;;;;8.38;5.88;;;;;;;3.27;93.23;102461.91;5082798;28;20040;-68
2024/01/29 07:17:05;;;;;;;10.38;6.20;;;;;;;3.28;93.04;102466.28;5077230;28;20052;-68
2024/01/29 07:19:33;;;;;;;10.05;5.60;;;;;;;3.28;92.99;102463.69;5070903;28;20071;-68
2024/01/29 07:22:04;;;;;;;9.55;5.32;;;;;;;3.26;93.11;102481.00;5035175;28;20384;-68
2024/01/29 07:24:32;;;;;;;11.00;6.07;;;;;;;3.26;93.12;102475.78;5057660;28;20048;-68
2024/01/29 07:27:36;;;;;;;9.43;5.57;;;;;;;3.26;93.23;102479.25;5072531;28;20402;-66
2024/01/29 07:30:04;;;;;;;13.40;5.47;;;;;;;3.26;93.14;102481.00;5046345;28;20036;-68
2024/01/29 07:32:33;;;;;;;10.43;6.20;;;;;;;3.24;93.15;102480.97;5054838;28;20416;-68
2024/01/29 07:35:01;;;;;;;12.00;5.75;;;;;;;3.25;93.30;102497.47;5055704;28;20051;-68
2024/01/29 07:37:28;;;;;;;10.95;5.35;;;;;;;3.26;93.15;102497.50;5055012;28;20036;-68
2024/01/29 07:39:56;;;;;;;9.60;6.03;;;;;;;3.29;93.28;102501.94;5048315;28;20055;-68
2024/01/29 07:42:23;;;;;;;10.02;5.15;;;;;;;3.32;93.20;102508.94;5058432;28;20583;-68
2024/01/29 07:44:53;;;;;;;7.93;5.32;;;;;;;3.35;93.39;102514.25;5064395;28;20076;-68
2024/01/29 07:47:21;;;;;;;9.48;5.57;;;;;;;3.39;93.36;102516.97;5062266;28;20115;-68
2024/01/29 07:49:48;;;;;;;12.73;5.95;;;;;;;3.43;93.47;102510.13;5042617;28;20119;-68
2024/01/29 07:52:15;;;;;;;9.25;5.43;;;;;;;3.49;93.18;102509.41;5043908;28;20563;-68
2024/01/29 07:54:42;;;;;;;9.50;5.35;;;;;;;3.53;93.19;102504.31;5044577;28;20048;-68
2024/01/29 07:57:10;;;;;;;9.88;5.60;;;;;;;3.60;93.14;102507.94;5044569;28;20045;-67
2024/01/29 07:59:37;;;;;;;9.23;5.82;;;;;;;3.67;93.09;102509.88;5042735;28;20139;-67
2024/01/29 08:02:04;;;;;;;12.88;6.07;;;;;;;3.76;93.12;102504.00;5043612;28;20125;-67
2024/01/29 08:04:32;;;;;;;7.75;4.75;;;;;;;3.84;92.96;102507.69;5044945;28;20053;-67
2024/01/29 08:06:59;;;;;;;10.73;5.40;;;;;;;3.94;92.93;102513.97;5044699;28;20098;-67
2024/01/29 08:09:27;;;;;;;9.85;5.15;;;;;;;4.01;92.82;102515.00;5043607;28;20041;-67
2024/01/29 08:11:54;;;;;;;8.02;5.47;;;;;;;4.08;92.68;102508.22;5058978;28;20049;-67
2024/01/29 08:14:21;;;;;;;8.10;5.25;;;;;;;4.14;92.38;102510.97;5045101;28;20069;-67
2024/01/29 08:16:48;;;;;;;10.07;5.60;;;;;;;4.22;92.48;102519.88;5044053;28;20037;-67
2024/01/29 08:19:15;;;;;;;11.57;6.00;;;;;;;4.32;92.35;102513.13;5043943;28;20049;-67
2024/01/29 08:21:46;;;;;;;6.70;4.78;;;;;;;4.38;92.09;102510.63;5044352;28;20087;-67
2024/01/29 08:24:13;;;;;;;8.18;5.47;;;;;;;4.46;91.86;102516.94;5044045;28;20456;-67
2024/01/29 08:26:40;;;;;;;9.32;5.80;;;;;;;4.53;91.67;102507.47;5043973;28;20107;-67
2024/01/29 08:29:08;;;;;;;12.80;5.45;;;;;;;4.64;91.44;102512.94;5043682;28;20045;-67
2024/01/29 08:31:35;;;;;;;9.05;5.68;;;;;;;4.74;91.23;102514.00;5044259;28;20068;-67
2024/01/29 08:34:04;;;;;;;9.55;5.20;;;;;;;4.84;90.86;102512.47;5044100;28;20122;-67
2024/01/29 08:36:31;;;;;;;12.02;5.50;;;;;;;4.93;90.74;102517.88;5044261;28;20438;-67
2024/01/29 08:38:59;;;;;;;10.77;5.78;;;;;;;5.05;90.74;102522.47;5029717;28;20038;-67
2024/01/29 08:41:26;;;;;;;12.80;5.63;;;;;;;5.15;90.66;102518.31;5030820;28;20057;-67
2024/01/29 08:43:53;;;;;;;8.38;5.35;;;;;;;5.25;90.63;102520.25;5031116;28;20128;-67
2024/01/29 08:46:21;;;;;;;11.80;5.97;;;;;;;5.33;90.82;102526.50;5031355;28;20089;-67
2024/01/29 08:48:48;;;;;;;10.18;6.32;;;;;;;5.41;90.25;102527.50;5028807;28;20041;-67
2024/01/29 08:51:15;;;;;;;7.82;5.60;;;;;;;5.48;90.29;102527.63;5030056;28;20049;-67
2024/01/29 08:53:43;;;;;;;9.98;5.30;;;;;;;5.54;90.33;102523.41;5031188;28;20076;-67
2024/01/29 08:56:12;;;;;;;8.63;5.22;;;;;;;5.64;90.41;102529.66;5030138;28;20037;-67
2024/01/29 08:58:39;;;;;;;8.73;5.63;;;;;;;5.75;90.23;102532.44;5029594;28;20424;-67
2024/01/29 09:01:06;;;;;;;7.65;5.32;;;;;;;5.84;90.19;102529.09;5029807;28;20041;-67
2024/01/29 09:03:34;;;;;;;10.68;5.68;;;;;;;5.97;89.87;102524.94;5028639;28;20045;-67
2024/01/29 09:06:02;;;;;;;9.77;5.97;;;;;;;6.06;89.75;102520.78;5037432;28;20045;-67
2024/01/29 09:08:31;;;;;;;9.30;5.50;;;;;;;6.18;89.44;102513.97;5046422;28;20041;-67
2024/01/29 09:10:58;;;;;;;8.60;5.50;;;;;;;6.31;89.61;102521.13;5039115;28;20064;-67
2024/01/29 09:13:25;;;;;;;10.35;5.60;;;;;;;6.42;89.34;102518.69;5033804;28;20045;-67
2024/01/29 09:15:53;;;;;;;10.98;5.55;;;;;;;6.52;89.15;102520.56;5032426;28;20041;-67
2024/01/29 09:18:20;;;;;;;9.82;5.95;;;;;;;6.63;89.13;102528.56;5042056;28;20116;-67
2024/01/29 09:20:47;;;;;;;10.52;5.95;;;;;;;6.72;88.95;102527.81;5031678;28;20039;-67
2024/01/29 09:23:14;;;;;;;9.55;6.30;;;;;;;6.79;88.69;102520.91;5041682;28;20103;-67
2024/01/29 09:25:41;;;;;;;8.18;6.28;;;;;;;6.88;88.39;102521.00;5034941;28;20130;-67
2024/01/29 09:28:09;;;;;;;13.38;6.38;;;;;;;6.96;88.24;102515.88;5053319;28;20049;-67
2024/01/29 09:30:36;;;;;;;11.27;6.15;;;;;;;7.04;87.96;102519.44;5046639;28;20049;-67
2024/01/29 09:33:03;;;;;;;12.23;6.38;;;;;;;7.12;87.87;102519.53;5036829;28;20049;-68
2024/01/29 09:35:44;;;;;;;14.20;6.60;;;;;;;7.20;87.91;102516.97;5033992;28;20049;-67
2024/01/29 09:38:14;;;;;;;8.60;6.32;;;;;;;7.25;87.46;102518.78;5050018;28;20041;-67
2024/01/29 09:40:46;;;;;;;10.05;5.88;;;;;;;7.27;87.05;102511.81;5037423;28;20464;-67
2024/01/29 09:43:17;;;;;;;12.05;6.25;;;;;;;7.29;87.07;102503.97;5036324;28;20061;-67
2024/01/29 09:45:48;;;;;;;10.40;6.03;;;;;;;7.30;86.65;102509.25;5034813;28;20233;-67
2024/01/29 09:48:16;;;;;;;9.07;6.25;;;;;;;7.33;86.82;102517.97;5035270;28;20452;-68
2024/01/29 09:50:45;;;;;;;11.77;6.28;;;;;;;7.33;86.77;102515.34;5026548;28;20075;-67
2024/01/29 09:53:16;;;;;;;8.23;6.25;;;;;;;7.35;86.83;102521.50;5031958;28;20052;-70
2024/01/29 09:55:44;;;;;;;9.50;6.20;;;;;;;7.37;86.84;102520.69;5030630;28;20124;-69
2024/01/29 09:58:11;;;;;;;10.10;6.38;;;;;;;7.39;86.86;102520.69;5031534;28;20037;-69
2024/01/29 10:00:38;;;;;;;8.60;6.07;;;;;;;7.43;86.83;102514.59;5042160;28;20072;-69
2024/01/29 10:03:13;;;;;;;10.23;6.50;;;;;;;7.45;86.69;102520.72;5030358;28;20037;-69
2024/01/29 10:05:41;;;;;;;9.25;6.70;;;;;;;7.48;87.14;102519.91;5031139;28;20041;-69
2024/01/29 10:08:09;;;;;;;13.10;6.43;;;;;;;7.50;87.30;102528.66;5042213;28;20041;-67
2024/01/29 10:10:37;;;;;;;9.23;6.32;;;;;;;7.54;87.34;102527.81;5035760;28;20044;-67
2024/01/29 10:13:06;;;;;;;13.65;7.05;;;;;;;7.59;87.36;102531.34;5039877;28;20045;-67
2024/01/29 10:15:33;;;;;;;9.05;6.43;;;;;;;7.67;87.17;102532.34;5025487;28;20040;-68
2024/01/29 10:18:01;;;;;;;10.57;6.32;;;;;;;7.76;87.05;102536.75;5031621;28;20091;-69
2024/01/29 10:20:28;;;;;;;9.75;6.78;;;;;;;7.85;86.94;102538.59;5030842;28;20149;-69
2024/01/29 10:23:00;;;;;;;11.57;6.75;;;;;;;7.96;86.81;102546.53;5053701;28;20042;-69
2024/01/29 10:25:29;;;;;;;9.65;6.28;;;;;;;8.03;86.84;102548.38;5029235;28;20061;-67
2024/01/29 10:28:12;;;;;;;10.80;6.60;;;;;;;8.13;86.50;102550.22;5032123;28;20041;-67
2024/01/29 10:30:40;;;;;;;8.35;5.78;;;;;;;8.21;86.80;102543.25;5026035;28;20064;-67
2024/01/29 10:33:09;;;;;;;11.27;6.30;;;;;;;8.31;86.55;102545.94;5031722;28;20140;-67
2024/01/29 10:35:37;;;;;;;8.65;6.05;;;;;;;8.42;86.22;102552.16;5026030;28;20037;-67
2024/01/29 10:38:06;;;;;;;10.60;6.20;;;;;;;8.53;85.97;102553.13;5047325;28;20047;-67
2024/01/29 10:40:36;;;;;;;14.00;6.80;;;;;;;8.65;85.86;102557.56;5027497;28;20037;-67
2024/01/29 10:43:05;;;;;;;8.90;6.35;;;;;;;8.79;85.77;102559.38;5011264;28;20045;-67
2024/01/29 10:45:41;;;;;;;10.27;6.50;;;;;;;8.92;85.46;102560.31;5028069;28;20087;-67
2024/01/29 10:48:15;;;;;;;12.32;6.63;;;;;;;9.01;85.14;102563.84;5038865;28;20032;-67
2024/01/29 10:50:44;;;;;;;9.90;6.80;;;;;;;9.09;84.99;102560.38;5033211;28;20069;-68
2024/01/29 10:53:13;;;;;;;10.68;6.65;;;;;;;9.18;84.28;102557.78;5033410;28;20048;-68
2024/01/29 10:55:41;;;;;;;11.10;6.70;;;;;;;9.26;84.36;102549.91;5039910;28;20046;-67
2024/01/29 10:58:12;;;;;;;10.20;7.15;;;;;;;9.34;84.13;102556.06;5020695;28;20048;-68
2024/01/29 11:00:42;;;;;;;13.75;7.25;;;;;;;9.37;83.37;102556.03;5041525;28;20045;-67
2024/01/29 11:03:12;;;;;;;9.30;6.82;;;;;;;9.40;83.21;102552.56;5037327;28;20108;-67
2024/01/29 11:05:50;;;;;;;10.30;6.97;;;;;;;9.46;82.83;102555.19;5028879;28;20044;-68
2024/01/29 11:08:24;;;;;;;12.57;7.13;;;;;;;9.52;82.78;102560.47;5025935;28;20519;-68
2024/01/29 11:10:52;;;;;;;14.10;6.95;;;;;;;9.57;82.48;102556.09;5034275;28;20052;-66
2024/01/29 11:13:21;;;;;;;9.90;6.80;;;;;;;9.61;82.66;102552.56;5027661;28;20065;-67
2024/01/29 11:15:50;;;;;;;12.40;6.88;;;;;;;9.69;83.09;102549.09;5010810;28;20125;-69
2024/01/29 11:18:17;;;;;;;9.15;6.50;;;;;;;9.74;82.39;102550.84;5027950;28;20049;-67
2024/01/29 11:20:44;;;;;;;12.30;7.13;;;;;;;9.76;82.15;102548.22;5027961;28;20128;-67
2024/01/29 11:23:11;;;;;;;11.48;7.32;;;;;;;9.77;82.26;102550.81;5035544;28;20048;-67
2024/01/29 11:25:51;;;;;;;9.85;6.55;;;;;;;9.77;82.56;102542.94;5028042;28;20636;-69
2024/01/29 11:28:19;;;;;;;10.50;7.40;;;;;;;9.78;82.71;102541.19;5027728;28;20434;-68
2024/01/29 11:30:50;;;;;;;9.85;7.43;;;;;;;9.82;82.01;102553.47;5026321;28;20103;-69
2024/01/29 11:33:19;;;;;;;14.30;7.60;;;;;;;9.83;82.39;102547.31;5027681;28;20037;-67